createdAt,value
2023-05-13T08:14:10.509Z,2.70
2023-05-13T08:16:44.553Z,2.85
2023-05-13T08:19:12.618Z,2.40
2023-05-13T08:21:46.532Z,2.72
2023-05-13T08:24:14.304Z,2.90
2023-05-13T08:26:48.731Z,3.30
2023-05-13T08:29:18.083Z,3.15
2023-05-13T09:40:09.381Z,2.60
2023-05-13T09:42:42.840Z,2.40
2023-05-13T09:45:18.674Z,2.53
2023-05-13T09:47:53.413Z,2.60
2023-05-13T09:50:29.369Z,2.40
2023-05-13T09:52:57.386Z,2.30
2023-05-13T09:55:33.556Z,2.30
2023-05-13T09:58:01.559Z,2.70
2023-05-13T10:00:32.990Z,2.85
2023-05-13T10:03:09.416Z,2.85
2023-05-13T10:05:37.411Z,2.53
2023-05-13T10:08:13.414Z,2.65
2023-05-13T10:10:45.508Z,2.60
2023-05-13T10:13:21.437Z,2.42
2023-05-13T10:15:51.277Z,2.45
2023-05-13T10:18:27.641Z,2.38
2023-05-13T10:20:56.170Z,2.40
2023-05-13T10:23:24.967Z,2.60
2023-05-13T10:26:02.402Z,2.60
2023-05-13T10:28:30.723Z,2.60
2023-05-13T10:31:05.494Z,2.55
2023-05-13T10:33:33.464Z,2.50
2023-05-13T10:36:19.378Z,2.30
2023-05-13T10:39:24.856Z,2.25
2023-05-13T10:42:43.489Z,2.33
2023-05-13T10:45:12.130Z,2.42
2023-05-13T10:47:47.531Z,2.40
2023-05-13T10:50:24.727Z,2.50
2023-05-13T10:53:04.584Z,2.63
2023-05-13T10:55:40.669Z,2.35
2023-05-13T10:58:21.552Z,2.40
2023-05-13T11:00:50.869Z,2.60
2023-05-13T11:03:37.687Z,2.38
2023-05-13T11:06:17.593Z,2.20
2023-05-13T11:08:55.987Z,2.53
2023-05-13T11:11:32.957Z,2.72
2023-05-13T11:14:23.754Z,2.33
2023-05-13T11:16:54.720Z,2.50
2023-05-13T11:19:30.565Z,2.17
2023-05-13T11:21:59.781Z,2.75
2023-05-13T11:24:28.125Z,2.67
2023-05-13T11:27:04.456Z,2.70
2023-05-13T11:29:35.884Z,2.67
2023-05-13T11:32:11.583Z,2.50
2023-05-13T11:34:40.652Z,2.45
2023-05-13T11:37:16.387Z,2.35
2023-05-13T11:39:50.495Z,3.00
2023-05-13T11:42:32.541Z,2.42
2023-05-13T11:45:01.816Z,2.28
2023-05-13T11:47:29.651Z,2.25
2023-05-13T11:50:05.418Z,2.53
2023-05-13T11:52:33.720Z,2.55
2023-05-13T11:55:08.407Z,2.10
2023-05-13T11:57:36.501Z,2.40
2023-05-13T12:00:15.430Z,2.50
2023-05-13T12:02:45.707Z,2.45
2023-05-13T12:05:14.112Z,2.45
2023-05-13T12:07:48.426Z,1.85
2023-05-13T12:10:16.965Z,2.50
2023-05-13T12:12:53.388Z,2.67
2023-05-13T12:15:23.746Z,2.47
2023-05-13T12:17:59.867Z,2.38
2023-05-13T12:20:28.060Z,2.45
2023-05-13T12:23:06.597Z,2.25
2023-05-13T12:25:43.058Z,2.30
2023-05-13T12:28:19.405Z,2.53
2023-05-13T12:30:53.588Z,2.67
2023-05-13T12:33:29.551Z,2.35
2023-05-13T12:36:16.441Z,2.25
2023-05-13T12:39:09.490Z,2.13
2023-05-13T12:41:53.551Z,2.55
2023-05-13T12:44:28.700Z,2.22
2023-05-13T12:46:59.494Z,2.30
2023-05-13T12:49:33.707Z,2.50
2023-05-13T12:52:04.796Z,2.22
2023-05-13T12:54:32.691Z,2.58
2023-05-13T12:57:07.475Z,2.20
2023-05-13T12:59:35.293Z,2.50
2023-05-13T13:02:11.478Z,2.17
2023-05-13T13:04:39.403Z,2.70
2023-05-13T13:07:19.529Z,2.30
2023-05-13T13:09:47.344Z,2.10
2023-05-13T13:12:21.448Z,2.70
2023-05-13T13:14:49.535Z,2.33
2023-05-13T13:17:18.670Z,2.40
2023-05-13T13:19:53.579Z,2.58
2023-05-13T13:22:21.378Z,2.30
2023-05-13T13:24:55.430Z,2.50
2023-05-13T13:27:23.281Z,2.50
2023-05-13T13:29:57.577Z,2.20
2023-05-13T13:32:26.908Z,2.30
2023-05-13T13:34:54.793Z,2.28
2023-05-13T13:37:38.001Z,2.03
2023-05-13T13:40:13.734Z,2.22
2023-05-13T13:42:48.508Z,2.50
2023-05-13T13:45:16.395Z,2.40
2023-05-13T13:47:52.542Z,2.30
2023-05-13T13:50:20.641Z,2.50
2023-05-13T13:52:55.609Z,2.30
2023-05-13T13:55:24.489Z,2.28
2023-05-13T13:57:52.590Z,2.33
2023-05-13T14:00:27.444Z,2.00
2023-05-13T14:02:56.692Z,2.47
2023-05-13T14:05:31.415Z,2.70
2023-05-13T14:07:59.214Z,2.42
2023-05-13T14:10:33.445Z,2.30
2023-05-13T14:13:01.240Z,2.47
2023-05-13T14:15:37.705Z,2.10
2023-05-13T14:18:07.716Z,2.55
2023-05-13T14:20:35.710Z,2.40
2023-05-13T14:23:10.478Z,2.28
2023-05-13T14:25:38.340Z,2.65
2023-05-13T14:28:12.454Z,2.17
2023-05-13T14:30:40.289Z,2.40
2023-05-13T14:33:16.502Z,2.03
2023-05-13T14:35:44.428Z,2.25
2023-05-13T14:38:25.503Z,2.20
2023-05-13T14:41:00.203Z,2.17
2023-05-13T14:43:34.613Z,1.90
2023-05-13T14:46:02.520Z,2.00
2023-05-13T14:48:31.692Z,2.20
2023-05-13T14:51:06.510Z,2.08
2023-05-13T14:53:34.537Z,2.15
2023-05-13T14:56:08.437Z,2.17
2023-05-13T14:58:36.543Z,2.30
2023-05-13T15:01:11.787Z,2.33
2023-05-13T15:03:40.991Z,2.50
2023-05-13T15:06:09.407Z,2.85
2023-05-13T15:08:44.494Z,2.53
2023-05-13T15:11:12.478Z,2.50
2023-05-13T15:13:46.459Z,1.95
2023-05-13T15:16:14.421Z,2.42
2023-05-13T15:18:50.768Z,2.30
2023-05-13T15:21:18.724Z,2.42
2023-05-13T15:23:53.775Z,2.40
2023-05-13T15:26:22.285Z,2.22
2023-05-13T15:28:50.186Z,2.25
2023-05-13T15:31:24.587Z,2.45
2023-05-13T15:33:53.965Z,2.38
2023-05-13T15:36:28.463Z,2.28
2023-05-13T15:39:02.878Z,2.17
2023-05-13T15:41:44.473Z,2.28
2023-05-13T15:44:12.307Z,2.20
2023-05-13T15:46:48.832Z,2.33
2023-05-13T15:49:18.884Z,2.20
2023-05-13T15:51:53.759Z,2.63
2023-05-13T15:54:21.782Z,2.33
2023-05-13T15:56:49.703Z,2.35
2023-05-13T15:59:24.507Z,2.50
2023-05-13T16:01:52.457Z,2.58
2023-05-13T16:04:28.624Z,2.75
2023-05-13T16:06:56.558Z,2.75
2023-05-13T16:09:30.509Z,2.20
2023-05-13T16:11:58.403Z,2.75
2023-05-13T16:14:32.691Z,2.70
2023-05-13T16:17:00.804Z,2.85
2023-05-13T16:19:30.149Z,2.50
2023-05-13T16:22:04.526Z,2.53
2023-05-13T16:24:32.297Z,2.72
2023-05-13T16:27:06.524Z,2.58
2023-05-13T16:29:34.325Z,2.65
2023-05-13T16:32:08.551Z,2.50
2023-05-13T16:34:37.840Z,2.53
2023-05-13T16:37:06.277Z,2.53
2023-05-13T16:39:40.497Z,2.28
2023-05-13T16:42:08.478Z,2.20
2023-05-13T16:44:42.521Z,2.95
2023-05-13T16:47:10.389Z,2.42
2023-05-13T16:49:46.512Z,2.55
2023-05-13T16:52:14.252Z,2.80
2023-05-13T16:54:48.676Z,2.30
2023-05-13T16:57:17.232Z,2.60
2023-05-13T16:59:44.989Z,2.42
2023-05-13T17:02:19.566Z,2.40
2023-05-13T17:04:48.738Z,2.42
2023-05-13T17:07:23.562Z,2.72
2023-05-13T17:09:51.354Z,2.70
2023-05-13T17:12:25.534Z,2.45
2023-05-13T17:14:53.350Z,2.50
2023-05-13T17:17:27.659Z,2.35
2023-05-13T17:20:00.683Z,2.83
2023-05-13T17:22:34.748Z,2.55
2023-05-13T17:25:02.615Z,2.42
2023-05-13T17:27:30.476Z,2.75
2023-05-13T17:30:05.522Z,2.28
2023-05-13T17:32:33.473Z,2.50
2023-05-13T17:35:09.505Z,2.50
2023-05-13T17:37:37.324Z,2.67
2023-05-13T17:40:19.777Z,2.35
2023-05-13T17:42:47.702Z,2.67
2023-05-13T17:45:22.700Z,2.63
2023-05-13T17:47:50.745Z,3.35
2023-05-13T17:50:20.246Z,2.80
2023-05-13T17:52:54.541Z,3.30
2023-05-13T17:55:22.450Z,2.83
2023-05-13T17:57:56.554Z,2.67
2023-05-13T18:00:25.234Z,3.20
2023-05-13T18:02:59.653Z,2.80
2023-05-13T18:05:29.011Z,2.40
2023-05-13T18:07:57.101Z,2.60
2023-05-13T18:10:33.578Z,2.40
2023-05-13T18:13:01.503Z,2.50
2023-05-13T18:15:35.519Z,2.80
2023-05-13T18:18:03.832Z,2.80
2023-05-13T18:20:40.583Z,2.80
2023-05-13T18:23:08.532Z,2.63
2023-05-13T18:25:54.663Z,2.63
2023-05-13T18:28:23.418Z,2.72
2023-05-13T18:30:57.730Z,2.63
2023-05-13T18:33:25.644Z,2.53
2023-05-13T18:35:54.916Z,2.60
2023-05-13T18:38:29.525Z,2.70
2023-05-13T18:41:04.843Z,3.08
2023-05-13T18:43:42.516Z,2.58
2023-05-13T18:46:10.621Z,2.42
2023-05-13T18:48:45.529Z,2.90
2023-05-13T18:51:16.655Z,2.28
2023-05-13T18:53:51.653Z,2.53
2023-05-13T18:56:20.945Z,2.92
2023-05-13T18:58:48.803Z,2.72
2023-05-13T19:01:23.844Z,2.88
2023-05-13T19:03:52.818Z,2.45
2023-05-13T19:06:28.542Z,2.70
2023-05-13T19:08:56.511Z,2.70
2023-05-13T19:11:30.523Z,2.90
2023-05-13T19:13:58.655Z,3.42
2023-05-13T19:16:34.007Z,2.78
2023-05-13T19:19:02.133Z,2.78
2023-05-13T19:21:31.647Z,3.10
2023-05-13T19:24:05.837Z,2.78
2023-05-13T19:26:33.709Z,2.80
2023-05-13T19:29:07.593Z,2.63
2023-05-13T19:31:35.521Z,2.60
2023-05-13T19:34:10.550Z,2.80
2023-05-13T19:36:39.750Z,2.50
2023-05-13T19:39:30.638Z,3.05
2023-05-13T19:41:58.707Z,2.88
2023-05-13T19:44:38.734Z,2.78
2023-05-13T19:47:06.847Z,2.78
2023-05-13T19:49:49.668Z,2.90
2023-05-13T19:52:22.852Z,3.42
2023-05-13T19:54:58.714Z,2.55
2023-05-13T19:57:29.821Z,2.90
2023-05-13T20:00:06.942Z,3.10
2023-05-13T20:02:35.136Z,3.10
2023-05-13T20:05:05.081Z,3.17
2023-05-13T20:07:40.827Z,2.85
2023-05-13T20:10:10.275Z,2.90
2023-05-13T20:12:47.665Z,3.30
2023-05-13T20:15:17.250Z,3.20
2023-05-13T20:17:55.818Z,2.55
2023-05-13T20:20:24.126Z,2.88
2023-05-13T20:23:02.765Z,3.05
2023-05-13T20:25:34.187Z,2.60
2023-05-13T20:28:10.549Z,3.25
2023-05-13T20:30:41.008Z,2.88
2023-05-13T20:33:09.037Z,3.13
2023-05-13T20:35:44.563Z,2.88
2023-05-13T20:38:13.796Z,2.80
2023-05-13T20:40:55.546Z,2.63
2023-05-13T20:43:23.662Z,3.13
2023-05-13T20:45:57.742Z,2.90
2023-05-13T20:48:25.582Z,2.90
2023-05-13T20:51:06.816Z,2.63
2023-05-13T20:53:36.481Z,3.17
2023-05-13T20:56:05.373Z,2.90
2023-05-13T20:58:39.584Z,2.90
2023-05-13T21:01:07.599Z,2.70
2023-05-13T21:03:41.717Z,3.08
2023-05-13T21:06:09.697Z,3.00
2023-05-13T21:08:46.600Z,3.00
2023-05-13T21:11:14.584Z,3.28
2023-05-13T21:13:48.692Z,3.03
2023-05-13T21:16:16.665Z,3.00
2023-05-13T21:18:44.555Z,3.43
2023-05-13T21:21:19.593Z,3.57
2023-05-13T21:23:48.762Z,3.30
2023-05-13T21:26:23.685Z,3.33
2023-05-13T21:28:51.651Z,3.40
2023-05-13T21:31:25.641Z,3.38
2023-05-13T21:33:53.639Z,3.15
2023-05-13T21:36:28.801Z,3.47
2023-05-13T21:39:04.762Z,3.40
2023-05-13T21:41:46.927Z,3.57
2023-05-13T21:44:14.810Z,3.60
2023-05-13T21:46:42.617Z,3.40
2023-05-13T21:49:16.591Z,3.43
2023-05-13T21:51:44.405Z,3.20
2023-05-13T21:54:20.603Z,3.57
2023-05-13T21:56:48.707Z,3.47
2023-05-13T21:59:23.664Z,3.37
2023-05-13T22:01:51.553Z,3.60
2023-05-13T22:04:26.775Z,3.43
2023-05-13T22:06:54.857Z,3.40
2023-05-13T22:09:24.295Z,3.30
2023-05-13T22:11:58.573Z,3.17
2023-05-13T22:14:26.534Z,4.07
2023-05-13T22:17:09.103Z,3.60
2023-05-13T22:19:38.109Z,3.73
2023-05-13T22:22:12.704Z,3.63
2023-05-13T22:24:41.890Z,3.83
2023-05-13T22:27:16.752Z,3.70
2023-05-13T22:29:44.603Z,3.80
2023-05-13T22:32:12.523Z,3.87
2023-05-13T22:34:46.660Z,3.77
2023-05-13T22:37:14.673Z,3.50
2023-05-13T22:39:50.550Z,3.57
2023-05-13T22:42:24.724Z,3.70
2023-05-13T22:44:59.680Z,3.73
2023-05-13T22:47:27.601Z,4.17
2023-05-13T22:50:01.745Z,3.43
2023-05-13T22:52:29.564Z,3.60
2023-05-13T22:54:59.317Z,4.07
2023-05-13T22:57:34.599Z,4.20
2023-05-13T23:00:03.064Z,3.40
2023-05-13T23:02:37.631Z,3.83
2023-05-13T23:05:06.099Z,3.87
2023-05-13T23:07:40.688Z,4.00
2023-05-13T23:10:11.067Z,4.73
2023-05-13T23:12:46.097Z,3.90
2023-05-13T23:15:15.827Z,4.10
2023-05-13T23:17:43.754Z,3.90
2023-05-13T23:20:18.646Z,3.73
2023-05-13T23:22:46.757Z,4.00
2023-05-13T23:25:22.642Z,3.50
2023-05-13T23:27:51.967Z,3.83
2023-05-13T23:30:26.584Z,4.10
2023-05-13T23:32:54.431Z,3.70
2023-05-13T23:35:28.779Z,4.17
2023-05-13T23:37:56.723Z,4.20
2023-05-13T23:40:38.819Z,4.37
2023-05-13T23:43:06.616Z,4.07
2023-05-13T23:45:34.473Z,4.27
2023-05-13T23:48:09.286Z,4.33
2023-05-13T23:50:39.413Z,4.27
2023-05-13T23:53:13.627Z,4.47
2023-05-13T23:55:42.779Z,4.53
2023-05-13T23:58:17.841Z,4.37
